createdAt,value
2024-03-30T05:43:29.492Z,3.60
2024-03-30T05:45:58.076Z,3.90
2024-03-30T05:48:26.070Z,3.60
2024-03-30T05:50:54.360Z,4.50
2024-03-30T05:53:22.123Z,4.20
2024-03-30T05:55:51.516Z,4.00
2024-03-30T05:58:19.186Z,4.40
2024-03-30T06:00:46.787Z,4.00
2024-03-30T06:03:14.401Z,4.00
2024-03-30T06:05:42.094Z,3.90
2024-03-30T06:08:09.835Z,4.70
2024-03-30T06:10:37.484Z,4.60
2024-03-30T06:13:05.051Z,5.00
2024-03-30T06:15:32.674Z,4.60
2024-03-30T06:18:00.291Z,4.50
2024-03-30T06:20:28.180Z,4.60
2024-03-30T06:22:55.782Z,4.90
2024-03-30T06:25:23.390Z,4.90
2024-03-30T06:27:51.766Z,5.00
2024-03-30T06:30:19.411Z,5.00
2024-03-30T06:32:46.993Z,5.70
2024-03-30T06:35:14.756Z,6.00
2024-03-30T06:37:42.321Z,5.90
2024-03-30T06:40:10.639Z,5.90
2024-03-30T06:42:38.254Z,6.60
2024-03-30T06:45:06.321Z,5.70
2024-03-30T06:47:34.054Z,6.70
2024-03-30T06:50:01.728Z,6.60
2024-03-30T06:52:29.511Z,6.60
2024-03-30T06:54:59.132Z,6.30
2024-03-30T06:57:27.448Z,6.30
2024-03-30T06:59:55.112Z,6.30
2024-03-30T07:02:22.730Z,6.60
2024-03-30T07:04:50.458Z,5.50
2024-03-30T07:07:18.055Z,5.10
2024-03-30T07:09:46.027Z,4.40
2024-03-30T07:12:13.566Z,3.70
2024-03-30T07:14:41.203Z,3.70
2024-03-30T07:17:14.394Z,3.90
2024-03-30T07:19:42.799Z,3.10
2024-03-30T07:22:10.519Z,3.60
2024-03-30T07:24:38.798Z,2.80
2024-03-30T07:27:06.633Z,3.10
2024-03-30T07:29:34.322Z,3.00
2024-03-30T07:32:01.894Z,2.50
2024-03-30T07:34:29.462Z,3.40
2024-03-30T07:36:57.147Z,2.70
2024-03-30T07:39:24.753Z,3.40
2024-03-30T07:41:52.435Z,3.60
2024-03-30T07:44:20.208Z,3.90
2024-03-30T07:46:47.896Z,3.80
2024-03-30T07:49:15.498Z,3.10
2024-03-30T07:51:43.159Z,3.30
2024-03-30T07:54:10.716Z,3.70
2024-03-30T07:56:39.735Z,3.50
2024-03-30T07:59:07.430Z,3.50
2024-03-30T08:01:35.098Z,3.50
2024-03-30T08:04:02.902Z,3.70
2024-03-30T08:06:30.689Z,3.20
2024-03-30T08:08:58.389Z,3.50
2024-03-30T08:11:28.098Z,3.50
2024-03-30T08:13:57.060Z,3.50
2024-03-30T08:16:24.699Z,3.40
2024-03-30T08:18:52.542Z,3.40
2024-03-30T08:21:20.242Z,3.30
2024-03-30T08:23:47.938Z,3.60
2024-03-30T08:26:15.656Z,4.00
2024-03-30T08:28:47.306Z,3.30
2024-03-30T08:31:16.145Z,4.20
2024-03-30T08:33:45.071Z,4.30
2024-03-30T08:36:12.649Z,3.50
2024-03-30T08:38:40.439Z,4.30
2024-03-30T08:41:08.013Z,4.60
2024-03-30T08:43:35.704Z,4.20
2024-03-30T08:46:03.372Z,4.40
2024-03-30T08:48:33.768Z,4.00
2024-03-30T08:51:04.137Z,4.80
2024-03-30T08:53:31.706Z,4.80
2024-03-30T08:56:01.813Z,4.00
2024-03-30T08:58:29.515Z,4.80
2024-03-30T09:00:57.667Z,5.20
2024-03-30T09:03:25.372Z,3.90
2024-03-30T09:05:53.266Z,4.90
2024-03-30T09:08:21.660Z,5.30
2024-03-30T09:10:49.268Z,4.30
2024-03-30T09:13:16.930Z,5.20
2024-03-30T09:15:44.662Z,4.80
2024-03-30T09:18:12.498Z,5.20
2024-03-30T09:20:40.187Z,4.90
2024-03-30T09:23:07.850Z,4.60
2024-03-30T09:25:35.703Z,4.60
2024-03-30T09:28:03.658Z,4.80
2024-03-30T09:30:31.520Z,5.50
2024-03-30T09:32:59.128Z,5.70
2024-03-30T09:35:27.021Z,6.10
2024-03-30T09:37:54.927Z,6.80
2024-03-30T09:40:22.857Z,6.50
2024-03-30T09:42:50.465Z,5.30
2024-03-30T09:45:18.980Z,6.20
2024-03-30T09:47:49.239Z,6.60
2024-03-30T09:50:18.273Z,5.50
2024-03-30T09:52:48.673Z,6.90
2024-03-30T09:55:16.502Z,7.30
2024-03-30T09:57:51.633Z,7.40
2024-03-30T10:00:20.057Z,7.00
2024-03-30T10:02:48.075Z,7.60
2024-03-30T10:05:29.402Z,7.30
2024-03-30T10:08:07.580Z,7.50
2024-03-30T10:10:35.460Z,7.00
2024-03-30T10:13:11.745Z,6.70
2024-03-30T10:15:50.988Z,7.70
2024-03-30T10:18:19.379Z,7.50
2024-03-30T10:20:47.070Z,8.50
2024-03-30T10:23:15.640Z,7.00
2024-03-30T10:25:53.821Z,7.40
2024-03-30T10:28:22.936Z,7.10
2024-03-30T10:30:50.762Z,6.60
2024-03-30T10:33:19.571Z,7.10
2024-03-30T10:35:47.453Z,7.90
2024-03-30T10:38:15.815Z,7.20
2024-03-30T10:40:43.500Z,8.30
2024-03-30T10:43:11.229Z,7.50
2024-03-30T10:45:40.038Z,7.00
2024-03-30T10:48:08.998Z,8.50
2024-03-30T10:50:37.131Z,8.90
2024-03-30T10:53:06.911Z,7.10
2024-03-30T10:55:38.670Z,8.60
2024-03-30T10:58:06.485Z,8.00
2024-03-30T11:00:34.886Z,7.60
2024-03-30T11:03:04.196Z,7.80
2024-03-30T11:05:33.206Z,7.50
2024-03-30T11:08:03.217Z,8.20
2024-03-30T11:10:31.271Z,6.20
2024-03-30T11:12:59.251Z,7.40
2024-03-30T11:15:30.096Z,7.40
2024-03-30T11:18:03.827Z,7.60
2024-03-30T11:21:14.670Z,6.70
2024-03-30T11:23:50.234Z,8.50
2024-03-30T11:26:21.974Z,7.00
2024-03-30T11:29:10.433Z,7.50
2024-03-30T11:31:43.435Z,8.00
2024-03-30T11:34:16.650Z,7.10
2024-03-30T11:36:52.759Z,6.30
2024-03-30T11:39:32.978Z,7.00
2024-03-30T11:42:26.593Z,7.10
2024-03-30T11:44:55.686Z,6.30
2024-03-30T11:47:24.426Z,6.90
2024-03-30T11:49:52.608Z,5.20
2024-03-30T11:52:20.283Z,5.80
2024-03-30T11:54:48.073Z,5.40
2024-03-30T11:57:23.350Z,5.20
2024-03-30T11:59:53.010Z,6.60
2024-03-30T12:02:22.999Z,4.90
2024-03-30T12:04:50.574Z,5.00
2024-03-30T12:07:18.649Z,6.60
2024-03-30T12:09:49.710Z,4.90
2024-03-30T12:12:18.815Z,6.60
2024-03-30T12:14:48.212Z,5.90
2024-03-30T12:17:16.060Z,5.30
2024-03-30T12:19:44.639Z,5.30
2024-03-30T12:22:12.512Z,8.80
2024-03-30T12:24:42.090Z,5.40
2024-03-30T12:27:09.893Z,4.80
2024-03-30T12:29:40.757Z,5.10
2024-03-30T12:32:08.754Z,3.60
2024-03-30T12:34:36.482Z,5.40
2024-03-30T12:37:06.550Z,4.80
2024-03-30T12:39:34.300Z,4.80
2024-03-30T12:42:01.946Z,4.10
2024-03-30T12:44:29.545Z,3.80
2024-03-30T12:46:57.287Z,5.00
2024-03-30T12:49:24.954Z,5.50
2024-03-30T12:51:53.310Z,4.80
2024-03-30T12:54:20.913Z,4.60
2024-03-30T12:56:48.841Z,4.70
2024-03-30T12:59:16.500Z,5.50
2024-03-30T13:01:44.072Z,6.90
2024-03-30T13:04:12.411Z,5.20
2024-03-30T13:06:43.286Z,6.00
2024-03-30T13:09:23.406Z,5.50
2024-03-30T13:11:51.371Z,5.90
2024-03-30T13:14:19.039Z,6.00
2024-03-30T13:16:46.744Z,7.90
2024-03-30T13:19:15.854Z,4.80
2024-03-30T13:21:43.623Z,5.30
2024-03-30T13:24:11.297Z,5.70
2024-03-30T13:26:39.160Z,5.10
2024-03-30T13:29:08.040Z,5.60
2024-03-30T13:31:35.738Z,4.80
2024-03-30T13:34:03.518Z,7.50
2024-03-30T13:36:31.225Z,4.80
2024-03-30T13:38:58.767Z,4.90
2024-03-30T13:41:26.759Z,5.10
2024-03-30T13:43:54.310Z,6.60
2024-03-30T13:46:22.124Z,5.60
2024-03-30T13:48:49.797Z,8.80
2024-03-30T13:51:17.430Z,5.60
2024-03-30T13:53:45.039Z,6.70
2024-03-30T13:56:12.660Z,6.90
2024-03-30T13:58:40.351Z,5.20
2024-03-30T14:01:07.998Z,6.20
2024-03-30T14:03:35.568Z,7.00
2024-03-30T14:06:03.488Z,6.00
2024-03-30T14:08:31.638Z,5.80
2024-03-30T14:10:59.319Z,8.40
2024-03-30T14:13:29.805Z,6.50
2024-03-30T14:15:57.580Z,4.80
2024-03-30T14:18:25.363Z,5.10
2024-03-30T14:20:53.030Z,5.00
2024-03-30T14:23:20.837Z,5.70
2024-03-30T14:25:48.523Z,5.40
2024-03-30T14:28:16.092Z,4.80
2024-03-30T14:30:45.909Z,5.50
2024-03-30T14:33:15.209Z,5.40
2024-03-30T14:35:43.060Z,7.50
2024-03-30T14:38:11.006Z,7.70
2024-03-30T14:40:38.782Z,5.70
2024-03-30T14:43:06.352Z,5.20
2024-03-30T14:45:34.357Z,6.40
2024-03-30T14:48:02.219Z,5.60
2024-03-30T14:50:29.890Z,7.90
2024-03-30T14:52:57.906Z,5.70
2024-03-30T14:55:25.598Z,6.00
2024-03-30T14:57:53.209Z,6.20
2024-03-30T15:00:20.996Z,5.00
2024-03-30T15:02:48.892Z,5.50
2024-03-30T15:05:16.667Z,5.90
2024-03-30T15:07:44.326Z,5.20
2024-03-30T15:10:15.421Z,8.20
2024-03-30T15:12:44.246Z,5.30
2024-03-30T15:15:13.277Z,4.60
2024-03-30T15:17:40.963Z,5.00
2024-03-30T15:20:08.945Z,5.00
2024-03-30T15:22:36.624Z,5.10
2024-03-30T16:35:34.877Z,5.40
2024-03-30T16:38:02.605Z,5.00
2024-03-30T16:40:30.306Z,5.40
2024-03-30T16:42:57.985Z,4.60
2024-03-30T16:45:25.739Z,4.80
2024-03-30T16:47:53.520Z,5.70
2024-03-30T16:50:21.932Z,4.90
2024-03-30T16:52:49.553Z,4.90
2024-03-30T16:55:17.306Z,6.60
2024-03-30T16:57:45.661Z,4.60
2024-03-30T17:00:13.900Z,5.70
2024-03-30T17:02:45.928Z,20.80
2024-03-30T17:05:14.825Z,20.40
2024-03-30T17:07:42.422Z,11.60
2024-03-30T17:10:10.045Z,7.50
2024-03-30T17:12:38.103Z,7.60
2024-03-30T17:15:06.939Z,5.20
2024-03-30T17:17:34.529Z,6.50
2024-03-30T17:20:02.332Z,6.00
2024-03-30T17:22:30.260Z,6.20
2024-03-30T17:24:57.993Z,6.50
2024-03-30T17:27:26.078Z,6.90
2024-03-30T17:29:53.906Z,11.30
2024-03-30T17:32:21.590Z,9.50
2024-03-30T17:35:01.251Z,7.20
2024-03-30T17:37:29.412Z,7.60
2024-03-30T17:39:57.143Z,8.80
2024-03-30T17:42:24.874Z,9.40
2024-03-30T17:44:52.774Z,9.50
2024-03-30T17:47:20.592Z,7.90
2024-03-30T17:49:48.240Z,7.50
2024-03-30T17:52:15.994Z,6.50
2024-03-30T17:54:46.533Z,5.50
2024-03-30T17:57:14.131Z,6.60
2024-03-30T17:59:41.902Z,6.00
2024-03-30T21:37:25.422Z,6.90
2024-03-30T21:39:53.525Z,5.50
2024-03-30T21:42:21.152Z,5.80
2024-03-30T21:44:48.842Z,6.30
2024-03-30T21:47:16.509Z,5.10
2024-03-30T21:49:44.055Z,4.90
2024-03-30T21:52:11.116Z,4.70
2024-03-30T21:54:38.233Z,5.20
2024-03-30T21:57:05.227Z,4.70
2024-03-30T21:59:31.992Z,4.50
2024-03-30T22:01:58.778Z,5.40
2024-03-30T22:04:25.438Z,6.60
2024-03-30T22:06:52.069Z,6.60
2024-03-30T22:09:18.674Z,6.60
2024-03-30T22:11:45.220Z,5.20
2024-03-30T22:14:11.663Z,6.70
2024-03-30T22:16:39.400Z,6.00
2024-03-30T22:19:06.463Z,7.00
2024-03-30T22:21:33.532Z,6.00
2024-03-30T22:24:00.489Z,6.50
2024-03-30T22:26:28.091Z,5.80
2024-03-30T22:29:01.083Z,7.00
2024-03-30T22:33:55.686Z,5.90
2024-03-30T22:36:23.365Z,6.30
2024-03-30T22:38:50.818Z,6.50
2024-03-30T22:41:18.098Z,6.50
2024-03-30T22:43:45.071Z,6.70
2024-03-30T22:46:12.848Z,6.50
2024-03-30T22:48:40.110Z,6.70
2024-03-30T22:51:07.476Z,6.60
2024-03-30T22:53:35.544Z,6.60
2024-03-30T22:56:02.525Z,6.90
2024-03-30T22:58:29.727Z,6.10
2024-03-30T23:00:58.234Z,5.90
2024-03-30T23:03:26.598Z,7.10
2024-03-30T23:05:59.442Z,6.20
2024-03-30T23:08:28.082Z,6.00
2024-03-30T23:11:05.559Z,5.60
2024-03-30T23:13:33.427Z,6.00
2024-03-30T23:16:01.009Z,6.20
2024-03-30T23:18:29.384Z,5.10
2024-03-30T23:20:56.353Z,6.50
2024-03-30T23:23:24.283Z,5.20
2024-03-30T23:25:52.474Z,4.50
2024-03-30T23:28:20.976Z,5.50
2024-03-30T23:30:47.558Z,5.60
2024-03-30T23:33:14.317Z,5.10
2024-03-30T23:35:42.388Z,5.50
2024-03-30T23:38:09.634Z,5.90
2024-03-30T23:40:37.217Z,5.30
2024-03-30T23:43:04.779Z,5.30
2024-03-30T23:45:36.392Z,5.30
2024-03-30T23:48:03.498Z,6.00
2024-03-30T23:50:30.230Z,6.00
2024-03-30T23:52:56.664Z,5.50
2024-03-30T23:55:23.800Z,5.00
2024-03-30T23:57:51.758Z,4.80
